sensor_id;sensor_type;location;lat;lon;timestamp;P1;durP1;ratioP1;P2;durP2;ratioP2
57107;SDS011;42987;52.916;6.542;2023-04-24T00:00:12;1.77;;;1.10;;
57107;SDS011;42987;52.916;6.542;2023-04-24T00:02:39;1.88;;;1.20;;
57107;SDS011;42987;52.916;6.542;2023-04-24T00:05:05;1.45;;;1.15;;
57107;SDS011;42987;52.916;6.542;2023-04-24T00:07:32;1.40;;;1.30;;
57107;SDS011;42987;52.916;6.542;2023-04-24T00:09:58;3.40;;;1.33;;
57107;SDS011;42987;52.916;6.542;2023-04-24T00:12:25;2.83;;;1.50;;
57107;SDS011;42987;52.916;6.542;2023-04-24T00:14:52;2.70;;;1.58;;
57107;SDS011;42987;52.916;6.542;2023-04-24T00:17:18;1.63;;;1.33;;
57107;SDS011;42987;52.916;6.542;2023-04-24T00:19:46;1.60;;;1.50;;
57107;SDS011;42987;52.916;6.542;2023-04-24T00:22:12;1.70;;;1.58;;
57107;SDS011;42987;52.916;6.542;2023-04-24T00:24:38;3.17;;;2.88;;
57107;SDS011;42987;52.916;6.542;2023-04-24T00:27:04;2.15;;;1.95;;
57107;SDS011;42987;52.916;6.542;2023-04-24T00:29:30;1.95;;;1.80;;
57107;SDS011;42987;52.916;6.542;2023-04-24T00:31:56;3.10;;;1.90;;
57107;SDS011;42987;52.916;6.542;2023-04-24T00:34:22;2.42;;;2.15;;
57107;SDS011;42987;52.916;6.542;2023-04-24T00:36:48;4.72;;;3.92;;
57107;SDS011;42987;52.916;6.542;2023-04-24T00:39:18;3.30;;;3.00;;
57107;SDS011;42987;52.916;6.542;2023-04-24T00:41:44;3.10;;;2.80;;
57107;SDS011;42987;52.916;6.542;2023-04-24T00:44:11;2.83;;;2.40;;
57107;SDS011;42987;52.916;6.542;2023-04-24T00:46:37;2.70;;;2.50;;
57107;SDS011;42987;52.916;6.542;2023-04-24T00:49:04;3.00;;;2.70;;
57107;SDS011;42987;52.916;6.542;2023-04-24T00:51:31;3.30;;;2.90;;
57107;SDS011;42987;52.916;6.542;2023-04-24T00:53:58;3.60;;;3.30;;
57107;SDS011;42987;52.916;6.542;2023-04-24T00:56:24;3.85;;;3.25;;
57107;SDS011;42987;52.916;6.542;2023-04-24T00:58:50;4.18;;;3.22;;
57107;SDS011;42987;52.916;6.542;2023-04-24T01:01:16;4.80;;;4.40;;
57107;SDS011;42987;52.916;6.542;2023-04-24T01:03:45;4.13;;;3.72;;
57107;SDS011;42987;52.916;6.542;2023-04-24T01:06:11;6.60;;;6.00;;
57107;SDS011;42987;52.916;6.542;2023-04-24T01:08:39;5.15;;;4.75;;
57107;SDS011;42987;52.916;6.542;2023-04-24T01:11:06;5.88;;;5.38;;
57107;SDS011;42987;52.916;6.542;2023-04-24T01:13:33;5.65;;;5.15;;
57107;SDS011;42987;52.916;6.542;2023-04-24T01:15:59;6.43;;;5.43;;
57107;SDS011;42987;52.916;6.542;2023-04-24T01:18:26;7.05;;;6.45;;
57107;SDS011;42987;52.916;6.542;2023-04-24T01:20:59;7.28;;;6.68;;
57107;SDS011;42987;52.916;6.542;2023-04-24T01:23:29;6.60;;;6.10;;
57107;SDS011;42987;52.916;6.542;2023-04-24T01:25:55;6.68;;;6.07;;
57107;SDS011;42987;52.916;6.542;2023-04-24T01:28:21;7.60;;;6.97;;
57107;SDS011;42987;52.916;6.542;2023-04-24T01:30:47;7.97;;;7.28;;
57107;SDS011;42987;52.916;6.542;2023-04-24T01:33:13;8.93;;;8.13;;
57107;SDS011;42987;52.916;6.542;2023-04-24T01:35:39;8.00;;;7.30;;
57107;SDS011;42987;52.916;6.542;2023-04-24T01:38:05;10.52;;;9.60;;
57107;SDS011;42987;52.916;6.542;2023-04-24T01:40:31;9.70;;;8.90;;
57107;SDS011;42987;52.916;6.542;2023-04-24T01:42:58;11.60;;;10.60;;
57107;SDS011;42987;52.916;6.542;2023-04-24T01:45:24;11.40;;;10.50;;
57107;SDS011;42987;52.916;6.542;2023-04-24T01:47:50;11.05;;;10.05;;
57107;SDS011;42987;52.916;6.542;2023-04-24T01:50:16;10.35;;;9.45;;
57107;SDS011;42987;52.916;6.542;2023-04-24T01:52:42;10.88;;;9.90;;
57107;SDS011;42987;52.916;6.542;2023-04-24T01:55:08;11.18;;;10.10;;
57107;SDS011;42987;52.916;6.542;2023-04-24T01:57:35;11.27;;;10.38;;
57107;SDS011;42987;52.916;6.542;2023-04-24T02:00:01;10.77;;;9.93;;
57107;SDS011;42987;52.916;6.542;2023-04-24T02:02:29;10.88;;;9.93;;
57107;SDS011;42987;52.916;6.542;2023-04-24T02:04:55;10.75;;;9.85;;
57107;SDS011;42987;52.916;6.542;2023-04-24T02:07:24;13.55;;;12.35;;
57107;SDS011;42987;52.916;6.542;2023-04-24T02:09:50;13.35;;;12.23;;
57107;SDS011;42987;52.916;6.542;2023-04-24T02:12:15;13.30;;;12.40;;
57107;SDS011;42987;52.916;6.542;2023-04-24T02:14:42;13.60;;;12.52;;
57107;SDS011;42987;52.916;6.542;2023-04-24T02:17:09;13.43;;;12.43;;
57107;SDS011;42987;52.916;6.542;2023-04-24T02:19:37;11.45;;;10.65;;
57107;SDS011;42987;52.916;6.542;2023-04-24T02:22:03;13.63;;;12.63;;
57107;SDS011;42987;52.916;6.542;2023-04-24T02:24:29;12.27;;;11.43;;
57107;SDS011;42987;52.916;6.542;2023-04-24T02:26:55;12.00;;;11.10;;
57107;SDS011;42987;52.916;6.542;2023-04-24T02:29:21;12.13;;;11.23;;
57107;SDS011;42987;52.916;6.542;2023-04-24T02:31:46;13.05;;;12.00;;
57107;SDS011;42987;52.916;6.542;2023-04-24T02:34:12;14.50;;;13.40;;
57107;SDS011;42987;52.916;6.542;2023-04-24T02:36:38;13.23;;;12.32;;
57107;SDS011;42987;52.916;6.542;2023-04-24T02:39:03;13.43;;;12.50;;
57107;SDS011;42987;52.916;6.542;2023-04-24T02:41:29;11.80;;;10.90;;
57107;SDS011;42987;52.916;6.542;2023-04-24T02:44:00;11.98;;;11.07;;
57107;SDS011;42987;52.916;6.542;2023-04-24T02:46:26;10.70;;;9.90;;
57107;SDS011;42987;52.916;6.542;2023-04-24T02:48:52;10.50;;;9.70;;
57107;SDS011;42987;52.916;6.542;2023-04-24T02:51:18;11.23;;;10.43;;
57107;SDS011;42987;52.916;6.542;2023-04-24T02:53:43;11.40;;;10.60;;
57107;SDS011;42987;52.916;6.542;2023-04-24T02:56:09;10.52;;;9.73;;
57107;SDS011;42987;52.916;6.542;2023-04-24T02:58:37;10.65;;;9.75;;
57107;SDS011;42987;52.916;6.542;2023-04-24T03:01:03;9.63;;;8.75;;
57107;SDS011;42987;52.916;6.542;2023-04-24T03:03:30;9.52;;;8.82;;
57107;SDS011;42987;52.916;6.542;2023-04-24T03:05:56;10.60;;;9.75;;
57107;SDS011;42987;52.916;6.542;2023-04-24T03:08:22;10.48;;;9.57;;
57107;SDS011;42987;52.916;6.542;2023-04-24T03:10:48;7.93;;;7.22;;
57107;SDS011;42987;52.916;6.542;2023-04-24T03:13:15;8.60;;;7.90;;
57107;SDS011;42987;52.916;6.542;2023-04-24T03:15:41;7.93;;;7.13;;
57107;SDS011;42987;52.916;6.542;2023-04-24T03:18:07;7.75;;;7.05;;
57107;SDS011;42987;52.916;6.542;2023-04-24T03:20:32;6.68;;;6.07;;
57107;SDS011;42987;52.916;6.542;2023-04-24T03:22:58;6.47;;;5.97;;
57107;SDS011;42987;52.916;6.542;2023-04-24T03:25:24;7.25;;;6.63;;
57107;SDS011;42987;52.916;6.542;2023-04-24T03:27:51;7.38;;;6.68;;
57107;SDS011;42987;52.916;6.542;2023-04-24T03:30:16;7.90;;;7.20;;
57107;SDS011;42987;52.916;6.542;2023-04-24T03:32:42;9.13;;;8.32;;
57107;SDS011;42987;52.916;6.542;2023-04-24T03:35:08;9.13;;;8.30;;
57107;SDS011;42987;52.916;6.542;2023-04-24T03:37:34;8.82;;;8.13;;
57107;SDS011;42987;52.916;6.542;2023-04-24T03:40:03;9.02;;;8.32;;
57107;SDS011;42987;52.916;6.542;2023-04-24T03:42:31;10.25;;;9.45;;
57107;SDS011;42987;52.916;6.542;2023-04-24T03:44:56;10.23;;;9.32;;
57107;SDS011;42987;52.916;6.542;2023-04-24T03:47:22;10.20;;;9.40;;
57107;SDS011;42987;52.916;6.542;2023-04-24T03:49:51;11.75;;;10.75;;
57107;SDS011;42987;52.916;6.542;2023-04-24T03:52:17;10.13;;;9.25;;
57107;SDS011;42987;52.916;6.542;2023-04-24T03:54:43;10.20;;;9.40;;
57107;SDS011;42987;52.916;6.542;2023-04-24T03:57:08;11.00;;;10.00;;
57107;SDS011;42987;52.916;6.542;2023-04-24T03:59:34;11.43;;;10.43;;
57107;SDS011;42987;52.916;6.542;2023-04-24T04:02:00;10.68;;;9.88;;
57107;SDS011;42987;52.916;6.542;2023-04-24T04:04:26;10.93;;;10.02;;
57107;SDS011;42987;52.916;6.542;2023-04-24T04:06:51;11.60;;;10.63;;
57107;SDS011;42987;52.916;6.542;2023-04-24T04:09:18;10.02;;;9.25;;
57107;SDS011;42987;52.916;6.542;2023-04-24T04:11:47;9.90;;;9.10;;
57107;SDS011;42987;52.916;6.542;2023-04-24T04:14:13;7.90;;;7.30;;
57107;SDS011;42987;52.916;6.542;2023-04-24T04:16:39;7.05;;;6.45;;
57107;SDS011;42987;52.916;6.542;2023-04-24T04:19:04;5.85;;;5.18;;
57107;SDS011;42987;52.916;6.542;2023-04-24T04:21:30;5.18;;;4.70;;
57107;SDS011;42987;52.916;6.542;2023-04-24T04:23:57;4.00;;;3.60;;
57107;SDS011;42987;52.916;6.542;2023-04-24T04:26:22;3.25;;;2.95;;
57107;SDS011;42987;52.916;6.542;2023-04-24T04:28:58;3.20;;;2.70;;
57107;SDS011;42987;52.916;6.542;2023-04-24T04:31:28;2.67;;;2.38;;
57107;SDS011;42987;52.916;6.542;2023-04-24T04:33:55;2.20;;;2.00;;
57107;SDS011;42987;52.916;6.542;2023-04-24T04:36:21;2.53;;;2.10;;
57107;SDS011;42987;52.916;6.542;2023-04-24T04:38:46;2.00;;;1.40;;
57107;SDS011;42987;52.916;6.542;2023-04-24T04:41:13;1.50;;;1.35;;
57107;SDS011;42987;52.916;6.542;2023-04-24T04:43:39;2.58;;;1.50;;
57107;SDS011;42987;52.916;6.542;2023-04-24T04:46:05;2.65;;;1.50;;
57107;SDS011;42987;52.916;6.542;2023-04-24T04:48:33;1.77;;;1.63;;
57107;SDS011;42987;52.916;6.542;2023-04-24T04:50:59;3.03;;;1.90;;
57107;SDS011;42987;52.916;6.542;2023-04-24T04:53:25;3.25;;;2.53;;
57107;SDS011;42987;52.916;6.542;2023-04-24T04:55:51;4.75;;;2.85;;
57107;SDS011;42987;52.916;6.542;2023-04-24T04:58:20;3.17;;;2.50;;
57107;SDS011;42987;52.916;6.542;2023-04-24T05:00:46;4.88;;;2.92;;
57107;SDS011;42987;52.916;6.542;2023-04-24T05:03:11;3.75;;;3.25;;
57107;SDS011;42987;52.916;6.542;2023-04-24T05:05:37;4.15;;;3.70;;
57107;SDS011;42987;52.916;6.542;2023-04-24T05:08:06;5.07;;;4.10;;
57107;SDS011;42987;52.916;6.542;2023-04-24T05:10:32;4.50;;;4.10;;
57107;SDS011;42987;52.916;6.542;2023-04-24T05:12:58;5.63;;;5.00;;
57107;SDS011;42987;52.916;6.542;2023-04-24T05:15:24;5.60;;;5.00;;
57107;SDS011;42987;52.916;6.542;2023-04-24T05:17:50;7.03;;;5.40;;
57107;SDS011;42987;52.916;6.542;2023-04-24T05:20:16;6.50;;;5.90;;
57107;SDS011;42987;52.916;6.542;2023-04-24T05:22:42;6.03;;;5.43;;
57107;SDS011;42987;52.916;6.542;2023-04-24T05:25:08;6.60;;;5.55;;
57107;SDS011;42987;52.916;6.542;2023-04-24T05:27:34;6.72;;;5.85;;
57107;SDS011;42987;52.916;6.542;2023-04-24T05:30:00;7.15;;;6.45;;
57107;SDS011;42987;52.916;6.542;2023-04-24T05:32:26;6.68;;;6.07;;
57107;SDS011;42987;52.916;6.542;2023-04-24T05:34:52;6.60;;;6.00;;
57107;SDS011;42987;52.916;6.542;2023-04-24T05:37:17;9.23;;;7.30;;
57107;SDS011;42987;52.916;6.542;2023-04-24T05:39:43;6.95;;;6.28;;
57107;SDS011;42987;52.916;6.542;2023-04-24T05:42:09;7.65;;;6.85;;
57107;SDS011;42987;52.916;6.542;2023-04-24T05:44:35;6.40;;;5.72;;
57107;SDS011;42987;52.916;6.542;2023-04-24T05:47:02;6.75;;;6.10;;
57107;SDS011;42987;52.916;6.542;2023-04-24T05:49:28;5.60;;;5.10;;
57107;SDS011;42987;52.916;6.542;2023-04-24T05:51:54;7.03;;;6.30;;
57107;SDS011;42987;52.916;6.542;2023-04-24T05:54:19;6.78;;;6.05;;
57107;SDS011;42987;52.916;6.542;2023-04-24T05:56:45;6.90;;;6.20;;
57107;SDS011;42987;52.916;6.542;2023-04-24T05:59:11;5.78;;;5.28;;
57107;SDS011;42987;52.916;6.542;2023-04-24T06:01:37;6.20;;;5.65;;
57107;SDS011;42987;52.916;6.542;2023-04-24T06:04:03;6.90;;;6.20;;
57107;SDS011;42987;52.916;6.542;2023-04-24T06:06:29;9.10;;;8.07;;
57107;SDS011;42987;52.916;6.542;2023-04-24T06:08:56;10.50;;;9.20;;
57107;SDS011;42987;52.916;6.542;2023-04-24T06:11:22;10.25;;;9.25;;
57107;SDS011;42987;52.916;6.542;2023-04-24T06:13:48;12.98;;;9.98;;
57107;SDS011;42987;52.916;6.542;2023-04-24T06:16:13;11.35;;;9.23;;
57107;SDS011;42987;52.916;6.542;2023-04-24T06:18:39;10.20;;;7.65;;
57107;SDS011;42987;52.916;6.542;2023-04-24T06:21:05;8.88;;;7.82;;
57107;SDS011;42987;52.916;6.542;2023-04-24T06:23:31;9.90;;;8.13;;
57107;SDS011;42987;52.916;6.542;2023-04-24T06:25:58;20.45;;;12.05;;
57107;SDS011;42987;52.916;6.542;2023-04-24T06:28:24;7.50;;;6.80;;
57107;SDS011;42987;52.916;6.542;2023-04-24T06:30:50;4.93;;;4.05;;
57107;SDS011;42987;52.916;6.542;2023-04-24T06:33:16;4.40;;;3.78;;
57107;SDS011;42987;52.916;6.542;2023-04-24T06:35:42;5.57;;;3.75;;
57107;SDS011;42987;52.916;6.542;2023-04-24T06:38:08;6.25;;;4.40;;
57107;SDS011;42987;52.916;6.542;2023-04-24T06:40:33;11.02;;;6.03;;
57107;SDS011;42987;52.916;6.542;2023-04-24T06:42:59;6.95;;;5.28;;
57107;SDS011;42987;52.916;6.542;2023-04-24T06:45:28;6.53;;;4.85;;
57107;SDS011;42987;52.916;6.542;2023-04-24T06:47:54;7.78;;;5.85;;
57107;SDS011;42987;52.916;6.542;2023-04-24T06:50:20;7.15;;;5.88;;
57107;SDS011;42987;52.916;6.542;2023-04-24T06:52:46;9.13;;;7.28;;
57107;SDS011;42987;52.916;6.542;2023-04-24T06:55:11;10.63;;;6.63;;
57107;SDS011;42987;52.916;6.542;2023-04-24T06:57:37;9.35;;;7.10;;
57107;SDS011;42987;52.916;6.542;2023-04-24T07:00:04;11.82;;;8.18;;
57107;SDS011;42987;52.916;6.542;2023-04-24T07:02:31;9.82;;;7.35;;
57107;SDS011;42987;52.916;6.542;2023-04-24T07:04:57;10.60;;;8.40;;
57107;SDS011;42987;52.916;6.542;2023-04-24T07:07:23;9.25;;;7.93;;
57107;SDS011;42987;52.916;6.542;2023-04-24T07:09:49;11.15;;;9.00;;
57107;SDS011;42987;52.916;6.542;2023-04-24T07:12:15;11.82;;;9.75;;
57107;SDS011;42987;52.916;6.542;2023-04-24T07:14:42;15.63;;;12.38;;
57107;SDS011;42987;52.916;6.542;2023-04-24T07:17:08;12.85;;;11.10;;
57107;SDS011;42987;52.916;6.542;2023-04-24T07:19:34;22.25;;;15.48;;
57107;SDS011;42987;52.916;6.542;2023-04-24T07:22:03;16.23;;;13.77;;
57107;SDS011;42987;52.916;6.542;2023-04-24T07:24:29;17.10;;;13.95;;
57107;SDS011;42987;52.916;6.542;2023-04-24T07:26:57;11.18;;;10.07;;
57107;SDS011;42987;52.916;6.542;2023-04-24T07:29:23;12.73;;;11.43;;
57107;SDS011;42987;52.916;6.542;2023-04-24T07:31:49;22.10;;;16.15;;
57107;SDS011;42987;52.916;6.542;2023-04-24T07:34:15;11.63;;;10.43;;
57107;SDS011;42987;52.916;6.542;2023-04-24T07:36:41;9.77;;;8.77;;
57107;SDS011;42987;52.916;6.542;2023-04-24T07:39:07;7.68;;;6.90;;
57107;SDS011;42987;52.916;6.542;2023-04-24T07:41:33;11.55;;;7.72;;
57107;SDS011;42987;52.916;6.542;2023-04-24T07:43:59;9.63;;;7.75;;
57107;SDS011;42987;52.916;6.542;2023-04-24T07:46:25;7.45;;;5.95;;
57107;SDS011;42987;52.916;6.542;2023-04-24T07:48:52;7.95;;;5.93;;
57107;SDS011;42987;52.916;6.542;2023-04-24T07:51:21;7.60;;;6.07;;
57107;SDS011;42987;52.916;6.542;2023-04-24T07:53:47;10.57;;;6.72;;
57107;SDS011;42987;52.916;6.542;2023-04-24T07:56:13;8.15;;;6.70;;
57107;SDS011;42987;52.916;6.542;2023-04-24T07:58:38;9.02;;;6.85;;
57107;SDS011;42987;52.916;6.542;2023-04-24T08:01:04;6.50;;;4.25;;
57107;SDS011;42987;52.916;6.542;2023-04-24T08:03:30;9.65;;;5.60;;
57107;SDS011;42987;52.916;6.542;2023-04-24T08:05:56;8.63;;;5.20;;
57107;SDS011;42987;52.916;6.542;2023-04-24T08:08:22;10.82;;;6.88;;
57107;SDS011;42987;52.916;6.542;2023-04-24T08:10:48;9.18;;;5.45;;
57107;SDS011;42987;52.916;6.542;2023-04-24T08:13:14;9.95;;;6.03;;
57107;SDS011;42987;52.916;6.542;2023-04-24T08:15:40;9.63;;;6.85;;
57107;SDS011;42987;52.916;6.542;2023-04-24T08:18:06;10.48;;;8.10;;
57107;SDS011;42987;52.916;6.542;2023-04-24T08:20:32;13.38;;;9.82;;
57107;SDS011;42987;52.916;6.542;2023-04-24T08:22:58;15.75;;;11.50;;
57107;SDS011;42987;52.916;6.542;2023-04-24T08:25:24;16.05;;;11.98;;
57107;SDS011;42987;52.916;6.542;2023-04-24T08:27:50;20.92;;;13.50;;
57107;SDS011;42987;52.916;6.542;2023-04-24T08:30:16;22.30;;;17.25;;
57107;SDS011;42987;52.916;6.542;2023-04-24T08:32:42;21.50;;;17.38;;
57107;SDS011;42987;52.916;6.542;2023-04-24T08:35:08;20.67;;;16.63;;
57107;SDS011;42987;52.916;6.542;2023-04-24T08:37:35;25.67;;;18.17;;
57107;SDS011;42987;52.916;6.542;2023-04-24T08:40:01;24.05;;;17.88;;
57107;SDS011;42987;52.916;6.542;2023-04-24T08:42:35;23.98;;;18.35;;
57107;SDS011;42987;52.916;6.542;2023-04-24T08:45:02;19.55;;;15.98;;
57107;SDS011;42987;52.916;6.542;2023-04-24T08:47:31;24.05;;;18.17;;
57107;SDS011;42987;52.916;6.542;2023-04-24T08:50:00;24.83;;;18.48;;
57107;SDS011;42987;52.916;6.542;2023-04-24T08:52:28;23.63;;;18.33;;
57107;SDS011;42987;52.916;6.542;2023-04-24T08:54:54;26.75;;;19.73;;
57107;SDS011;42987;52.916;6.542;2023-04-24T08:57:21;26.52;;;20.17;;
57107;SDS011;42987;52.916;6.542;2023-04-24T08:59:47;27.85;;;22.45;;
57107;SDS011;42987;52.916;6.542;2023-04-24T09:02:14;31.92;;;23.92;;
57107;SDS011;42987;52.916;6.542;2023-04-24T09:04:41;33.35;;;26.80;;
57107;SDS011;42987;52.916;6.542;2023-04-24T09:07:09;27.13;;;23.20;;
57107;SDS011;42987;52.916;6.542;2023-04-24T09:09:37;31.20;;;24.33;;
57107;SDS011;42987;52.916;6.542;2023-04-24T09:12:04;31.27;;;24.85;;
57107;SDS011;42987;52.916;6.542;2023-04-24T09:14:30;31.95;;;27.35;;
57107;SDS011;42987;52.916;6.542;2023-04-24T09:16:57;33.47;;;26.70;;
57107;SDS011;42987;52.916;6.542;2023-04-24T09:19:23;35.53;;;28.83;;
57107;SDS011;42987;52.916;6.542;2023-04-24T09:21:49;29.98;;;26.70;;
57107;SDS011;42987;52.916;6.542;2023-04-24T09:24:18;29.02;;;25.85;;
57107;SDS011;42987;52.916;6.542;2023-04-24T09:26:48;26.98;;;24.23;;
57107;SDS011;42987;52.916;6.542;2023-04-24T09:29:18;30.00;;;26.38;;
57107;SDS011;42987;52.916;6.542;2023-04-24T09:31:44;26.30;;;23.53;;
57107;SDS011;42987;52.916;6.542;2023-04-24T09:34:11;29.95;;;24.73;;
57107;SDS011;42987;52.916;6.542;2023-04-24T09:36:41;25.60;;;21.95;;
57107;SDS011;42987;52.916;6.542;2023-04-24T09:39:08;20.30;;;18.08;;
57107;SDS011;42987;52.916;6.542;2023-04-24T09:41:49;22.90;;;19.25;;
57107;SDS011;42987;52.916;6.542;2023-04-24T09:44:17;20.27;;;17.77;;
57107;SDS011;42987;52.916;6.542;2023-04-24T09:46:51;17.13;;;15.32;;
57107;SDS011;42987;52.916;6.542;2023-04-24T09:49:26;19.52;;;16.38;;
57107;SDS011;42987;52.916;6.542;2023-04-24T09:52:04;20.42;;;18.15;;
57107;SDS011;42987;52.916;6.542;2023-04-24T09:54:31;19.17;;;17.20;;
57107;SDS011;42987;52.916;6.542;2023-04-24T09:56:57;18.48;;;16.30;;
57107;SDS011;42987;52.916;6.542;2023-04-24T09:59:24;19.00;;;15.15;;
57107;SDS011;42987;52.916;6.542;2023-04-24T10:01:50;21.33;;;16.23;;
57107;SDS011;42987;52.916;6.542;2023-04-24T10:06:46;20.20;;;13.73;;
57107;SDS011;42987;52.916;6.542;2023-04-24T10:09:21;20.42;;;13.43;;
57107;SDS011;42987;52.916;6.542;2023-04-24T10:11:49;18.55;;;12.00;;
57107;SDS011;42987;52.916;6.542;2023-04-24T10:14:17;19.73;;;12.95;;
57107;SDS011;42987;52.916;6.542;2023-04-24T10:16:46;22.35;;;14.32;;
57107;SDS011;42987;52.916;6.542;2023-04-24T10:19:12;18.58;;;11.52;;
57107;SDS011;42987;52.916;6.542;2023-04-24T10:21:39;18.25;;;9.75;;
57107;SDS011;42987;52.916;6.542;2023-04-24T10:24:08;18.58;;;10.77;;
57107;SDS011;42987;52.916;6.542;2023-04-24T10:26:35;16.55;;;10.43;;
57107;SDS011;42987;52.916;6.542;2023-04-24T10:29:02;16.35;;;9.23;;
57107;SDS011;42987;52.916;6.542;2023-04-24T10:31:34;13.55;;;7.80;;
57107;SDS011;42987;52.916;6.542;2023-04-24T10:34:02;14.48;;;8.02;;
57107;SDS011;42987;52.916;6.542;2023-04-24T10:36:29;13.70;;;7.90;;
57107;SDS011;42987;52.916;6.542;2023-04-24T10:38:57;13.20;;;6.32;;
57107;SDS011;42987;52.916;6.542;2023-04-24T10:41:25;17.92;;;7.82;;
57107;SDS011;42987;52.916;6.542;2023-04-24T10:44:04;14.45;;;6.72;;
57107;SDS011;42987;52.916;6.542;2023-04-24T10:46:38;13.55;;;6.30;;
57107;SDS011;42987;52.916;6.542;2023-04-24T10:51:44;10.75;;;5.00;;
57107;SDS011;42987;52.916;6.542;2023-04-24T10:54:21;12.80;;;5.15;;
57107;SDS011;42987;52.916;6.542;2023-04-24T10:57:25;11.23;;;5.30;;
57107;SDS011;42987;52.916;6.542;2023-04-24T11:00:09;14.25;;;5.22;;
57107;SDS011;42987;52.916;6.542;2023-04-24T11:02:45;14.23;;;5.22;;
57107;SDS011;42987;52.916;6.542;2023-04-24T11:05:18;13.48;;;4.68;;
57107;SDS011;42987;52.916;6.542;2023-04-24T11:11:03;13.38;;;4.57;;
57107;SDS011;42987;52.916;6.542;2023-04-24T11:13:26;8.50;;;3.72;;
57107;SDS011;42987;52.916;6.542;2023-04-24T11:16:29;9.35;;;3.70;;
57107;SDS011;42987;52.916;6.542;2023-04-24T11:21:57;14.93;;;4.80;;
57107;SDS011;42987;52.916;6.542;2023-04-24T11:24:32;11.40;;;4.05;;
57107;SDS011;42987;52.916;6.542;2023-04-24T11:32:23;9.73;;;3.33;;
57107;SDS011;42987;52.916;6.542;2023-04-24T11:34:53;10.20;;;3.25;;
57107;SDS011;42987;52.916;6.542;2023-04-24T11:37:21;8.45;;;3.25;;
57107;SDS011;42987;52.916;6.542;2023-04-24T11:39:52;11.48;;;3.97;;
57107;SDS011;42987;52.916;6.542;2023-04-24T11:42:20;8.88;;;3.38;;
57107;SDS011;42987;52.916;6.542;2023-04-24T11:44:47;8.45;;;3.42;;
57107;SDS011;42987;52.916;6.542;2023-04-24T11:47:15;7.53;;;2.88;;
57107;SDS011;42987;52.916;6.542;2023-04-24T11:49:41;8.98;;;2.83;;
57107;SDS011;42987;52.916;6.542;2023-04-24T11:52:06;8.50;;;2.88;;
57107;SDS011;42987;52.916;6.542;2023-04-24T11:54:32;9.70;;;3.05;;
57107;SDS011;42987;52.916;6.542;2023-04-24T11:56:58;11.98;;;3.25;;
57107;SDS011;42987;52.916;6.542;2023-04-24T11:59:24;11.18;;;3.00;;
57107;SDS011;42987;52.916;6.542;2023-04-24T12:01:50;8.43;;;2.67;;
57107;SDS011;42987;52.916;6.542;2023-04-24T12:04:17;10.80;;;2.95;;
57107;SDS011;42987;52.916;6.542;2023-04-24T12:06:59;10.32;;;3.25;;
57107;SDS011;42987;52.916;6.542;2023-04-24T12:09:27;8.43;;;2.53;;
57107;SDS011;42987;52.916;6.542;2023-04-24T12:11:54;7.32;;;2.45;;
57107;SDS011;42987;52.916;6.542;2023-04-24T12:14:24;8.15;;;2.63;;
57107;SDS011;42987;52.916;6.542;2023-04-24T12:16:50;7.63;;;2.40;;
57107;SDS011;42987;52.916;6.542;2023-04-24T12:19:20;5.88;;;2.25;;
57107;SDS011;42987;52.916;6.542;2023-04-24T12:22:03;9.65;;;2.80;;
57107;SDS011;42987;52.916;6.542;2023-04-24T12:24:30;7.75;;;2.58;;
57107;SDS011;42987;52.916;6.542;2023-04-24T12:26:57;7.90;;;2.55;;
57107;SDS011;42987;52.916;6.542;2023-04-24T12:29:23;5.72;;;2.00;;
57107;SDS011;42987;52.916;6.542;2023-04-24T12:31:53;5.60;;;2.00;;
57107;SDS011;42987;52.916;6.542;2023-04-24T12:34:21;5.28;;;1.92;;
57107;SDS011;42987;52.916;6.542;2023-04-24T12:36:48;6.03;;;1.77;;
57107;SDS011;42987;52.916;6.542;2023-04-24T12:39:18;7.95;;;1.30;;
57107;SDS011;42987;52.916;6.542;2023-04-24T12:41:54;5.68;;;1.60;;
57107;SDS011;42987;52.916;6.542;2023-04-24T12:44:31;6.50;;;1.50;;
57107;SDS011;42987;52.916;6.542;2023-04-24T12:47:02;4.10;;;1.20;;
57107;SDS011;42987;52.916;6.542;2023-04-24T12:49:31;5.72;;;1.52;;
57107;SDS011;42987;52.916;6.542;2023-04-24T12:51:58;3.97;;;1.27;;
57107;SDS011;42987;52.916;6.542;2023-04-24T12:54:23;5.00;;;1.30;;
57107;SDS011;42987;52.916;6.542;2023-04-24T12:56:49;3.42;;;1.00;;
57107;SDS011;42987;52.916;6.542;2023-04-24T12:59:15;4.38;;;1.25;;
57107;SDS011;42987;52.916;6.542;2023-04-24T13:01:41;5.65;;;1.30;;
57107;SDS011;42987;52.916;6.542;2023-04-24T13:04:07;6.30;;;1.45;;
57107;SDS011;42987;52.916;6.542;2023-04-24T13:06:32;5.13;;;1.30;;
57107;SDS011;42987;52.916;6.542;2023-04-24T13:08:59;6.38;;;1.48;;
57107;SDS011;42987;52.916;6.542;2023-04-24T13:11:25;7.15;;;1.65;;
57107;SDS011;42987;52.916;6.542;2023-04-24T13:13:51;5.22;;;1.38;;
57107;SDS011;42987;52.916;6.542;2023-04-24T13:16:16;7.22;;;1.50;;
57107;SDS011;42987;52.916;6.542;2023-04-24T13:18:42;3.80;;;1.40;;
57107;SDS011;42987;52.916;6.542;2023-04-24T13:21:08;6.65;;;1.77;;
57107;SDS011;42987;52.916;6.542;2023-04-24T13:23:34;7.28;;;1.70;;
57107;SDS011;42987;52.916;6.542;2023-04-24T13:26:00;6.00;;;1.70;;
57107;SDS011;42987;52.916;6.542;2023-04-24T13:28:26;4.85;;;1.20;;
57107;SDS011;42987;52.916;6.542;2023-04-24T13:30:52;6.88;;;1.63;;
57107;SDS011;42987;52.916;6.542;2023-04-24T13:33:21;4.18;;;1.33;;
57107;SDS011;42987;52.916;6.542;2023-04-24T13:35:47;6.32;;;1.20;;
57107;SDS011;42987;52.916;6.542;2023-04-24T13:38:13;4.47;;;1.10;;
57107;SDS011;42987;52.916;6.542;2023-04-24T13:40:38;3.85;;;1.35;;
57107;SDS011;42987;52.916;6.542;2023-04-24T13:43:04;5.78;;;1.60;;
57107;SDS011;42987;52.916;6.542;2023-04-24T13:45:30;4.72;;;1.20;;
57107;SDS011;42987;52.916;6.542;2023-04-24T13:47:56;5.05;;;1.58;;
57107;SDS011;42987;52.916;6.542;2023-04-24T13:50:22;5.78;;;1.90;;
57107;SDS011;42987;52.916;6.542;2023-04-24T13:52:48;5.70;;;1.83;;
57107;SDS011;42987;52.916;6.542;2023-04-24T13:55:13;5.65;;;1.45;;
57107;SDS011;42987;52.916;6.542;2023-04-24T13:57:39;5.97;;;1.63;;
57107;SDS011;42987;52.916;6.542;2023-04-24T14:00:05;4.88;;;1.13;;
57107;SDS011;42987;52.916;6.542;2023-04-24T14:02:35;5.63;;;1.38;;
57107;SDS011;42987;52.916;6.542;2023-04-24T14:05:02;6.00;;;1.23;;
57107;SDS011;42987;52.916;6.542;2023-04-24T14:07:28;7.00;;;1.70;;
57107;SDS011;42987;52.916;6.542;2023-04-24T14:09:54;7.30;;;1.40;;
57107;SDS011;42987;52.916;6.542;2023-04-24T14:12:20;9.07;;;2.08;;
57107;SDS011;42987;52.916;6.542;2023-04-24T14:14:46;6.60;;;1.83;;
57107;SDS011;42987;52.916;6.542;2023-04-24T14:17:13;5.97;;;1.83;;
57107;SDS011;42987;52.916;6.542;2023-04-24T14:19:39;9.63;;;2.25;;
57107;SDS011;42987;52.916;6.542;2023-04-24T14:22:05;7.60;;;2.10;;
57107;SDS011;42987;52.916;6.542;2023-04-24T14:24:31;7.95;;;1.92;;
57107;SDS011;42987;52.916;6.542;2023-04-24T14:26:57;9.73;;;2.13;;
57107;SDS011;42987;52.916;6.542;2023-04-24T14:29:23;7.45;;;1.95;;
57107;SDS011;42987;52.916;6.542;2023-04-24T14:31:51;7.95;;;2.20;;
57107;SDS011;42987;52.916;6.542;2023-04-24T14:34:17;8.00;;;1.92;;
57107;SDS011;42987;52.916;6.542;2023-04-24T14:36:43;10.02;;;2.60;;
57107;SDS011;42987;52.916;6.542;2023-04-24T14:39:09;11.13;;;2.63;;
57107;SDS011;42987;52.916;6.542;2023-04-24T14:41:35;10.45;;;2.58;;
57107;SDS011;42987;52.916;6.542;2023-04-24T14:44:05;9.75;;;2.72;;
57107;SDS011;42987;52.916;6.542;2023-04-24T14:46:31;11.45;;;3.20;;
57107;SDS011;42987;52.916;6.542;2023-04-24T14:48:57;10.80;;;2.75;;
57107;SDS011;42987;52.916;6.542;2023-04-24T14:51:23;10.98;;;3.00;;
57107;SDS011;42987;52.916;6.542;2023-04-24T14:53:50;11.45;;;2.72;;